VDA2677 EKYT-UWLW
Flight info
| Callsign | VDA2677 |
|---|---|
| Flight time | 3h 2m |
| Altitude | 39000 |
| Route | KUVUS DCT BEDOS DCT EVONA N165 SORES M864 IGORO/K0859F390 M864 EKPIR L94 USTOK T464 MEZET MEZET1X |
| Aircraft | A310/H-SDFGHIM1RTUWXY/LB1 |
Departure
| Time | 2026-04-27 17:01 |
|---|---|
| Airport | Aalborg Airport (EKYT) |
Arrival
| Time | 2026-04-27 20:03 |
|---|---|
| Airport | Ulyanovsk Vostochny Airport (UWLW) |
| Time | Latitude | Longitude | Altitude | Speed | Heading |
|---|---|---|---|---|---|
| 2026-04-27 16:29 | 57.08517 | 9.87033 | 24 ft | 0 kts | 135° |
| 2026-04-27 16:52 | 57.08517 | 9.87034 | 24 ft | 1 kts | 135° |
| 2026-04-27 16:53 | 57.08517 | 9.87045 | 28 ft | 1 kts | 95° |
| 2026-04-27 16:53 | 57.08523 | 9.87054 | 28 ft | 2 kts | 38° |
| 2026-04-27 16:53 | 57.08555 | 9.87048 | 28 ft | 7 kts | 338° |
| 2026-04-27 16:53 | 57.08598 | 9.86985 | 24 ft | 8 kts | 316° |
| 2026-04-27 16:54 | 57.08642 | 9.86907 | 24 ft | 9 kts | 316° |
| 2026-04-27 16:54 | 57.08697 | 9.86814 | 25 ft | 13 kts | 317° |
| 2026-04-27 16:54 | 57.08774 | 9.86695 | 26 ft | 17 kts | 321° |
| 2026-04-27 16:54 | 57.08876 | 9.86550 | 28 ft | 20 kts | 322° |
| 2026-04-27 16:55 | 57.08991 | 9.86390 | 26 ft | 21 kts | 323° |
| 2026-04-27 16:55 | 57.09106 | 9.86226 | 27 ft | 21 kts | 322° |
| 2026-04-27 16:55 | 57.09222 | 9.86065 | 27 ft | 20 kts | 323° |
| 2026-04-27 16:55 | 57.09308 | 9.85939 | 27 ft | 15 kts | 321° |
| 2026-04-27 16:56 | 57.09339 | 9.85816 | 28 ft | 11 kts | 267° |
| 2026-04-27 16:56 | 57.09329 | 9.85670 | 28 ft | 12 kts | 268° |
| 2026-04-27 16:56 | 57.09323 | 9.85511 | 24 ft | 13 kts | 262° |
| 2026-04-27 16:56 | 57.09310 | 9.85342 | 26 ft | 14 kts | 262° |
| 2026-04-27 16:57 | 57.09298 | 9.85167 | 29 ft | 14 kts | 263° |
| 2026-04-27 16:57 | 57.09285 | 9.84981 | 24 ft | 15 kts | 263° |
| 2026-04-27 16:57 | 57.09273 | 9.84785 | 28 ft | 16 kts | 263° |
| 2026-04-27 16:57 | 57.09260 | 9.84582 | 24 ft | 16 kts | 263° |
| 2026-04-27 16:58 | 57.09246 | 9.84346 | 24 ft | 21 kts | 263° |
| 2026-04-27 16:58 | 57.09228 | 9.84063 | 28 ft | 23 kts | 263° |
| 2026-04-27 16:58 | 57.09209 | 9.83764 | 26 ft | 24 kts | 263° |
| 2026-04-27 16:58 | 57.09206 | 9.83582 | 27 ft | 7 kts | 298° |
| 2026-04-27 16:59 | 57.09242 | 9.83499 | 27 ft | 9 kts | 310° |
| 2026-04-27 16:59 | 57.09294 | 9.83413 | 27 ft | 11 kts | 329° |
| 2026-04-27 16:59 | 57.09360 | 9.83400 | 24 ft | 9 kts | 20° |
| 2026-04-27 16:59 | 57.09380 | 9.83470 | 29 ft | 0 kts | 82° |
| 2026-04-27 17:00 | 57.09398 | 9.83716 | 24 ft | 53 kts | 83° |
| 2026-04-27 17:00 | 57.09507 | 9.85395 | 26 ft | 141 kts | 84° |
| 2026-04-27 17:00 | 57.09584 | 9.87314 | 509 ft | 154 kts | 83° |
| 2026-04-27 17:01 | 57.09649 | 9.89267 | 1310 ft | 151 kts | 84° |
| 2026-04-27 17:01 | 57.09678 | 9.91247 | 1926 ft | 159 kts | 84° |
| 2026-04-27 17:01 | 57.09737 | 9.93381 | 2470 ft | 177 kts | 84° |
| 2026-04-27 17:01 | 57.09823 | 9.95700 | 3113 ft | 192 kts | 83° |
| 2026-04-27 17:02 | 57.09913 | 9.98273 | 3729 ft | 209 kts | 83° |
| 2026-04-27 17:02 | 57.10021 | 10.01007 | 4529 ft | 219 kts | 77° |
| 2026-04-27 17:02 | 57.10544 | 10.03648 | 5449 ft | 224 kts | 63° |
| 2026-04-27 17:02 | 57.11232 | 10.06281 | 6339 ft | 234 kts | 62° |
| 2026-04-27 17:03 | 57.11945 | 10.09071 | 7138 ft | 248 kts | 63° |
| 2026-04-27 17:03 | 57.12691 | 10.12030 | 7956 ft | 260 kts | 63° |
| 2026-04-27 17:03 | 57.13457 | 10.15093 | 8976 ft | 266 kts | 63° |
| 2026-04-27 17:03 | 57.14218 | 10.18249 | 10020 ft | 272 kts | 64° |
| 2026-04-27 17:04 | 57.15003 | 10.21475 | 10875 ft | 283 kts | 63° |
| 2026-04-27 17:04 | 57.15840 | 10.24924 | 11379 ft | 305 kts | 64° |
| 2026-04-27 17:04 | 57.16720 | 10.28541 | 12006 ft | 321 kts | 64° |
| 2026-04-27 17:04 | 57.17645 | 10.32395 | 12694 ft | 335 kts | 64° |
| 2026-04-27 17:05 | 57.18610 | 10.36375 | 13454 ft | 346 kts | 64° |
| 2026-04-27 17:05 | 57.19597 | 10.40496 | 14184 ft | 357 kts | 64° |
| 2026-04-27 17:05 | 57.20627 | 10.44757 | 14654 ft | 372 kts | 64° |
| 2026-04-27 17:05 | 57.21688 | 10.49209 | 15172 ft | 385 kts | 64° |
| 2026-04-27 17:06 | 57.22785 | 10.53769 | 15838 ft | 392 kts | 64° |
| 2026-04-27 17:06 | 57.23890 | 10.58417 | 16551 ft | 398 kts | 64° |
| 2026-04-27 17:06 | 57.25015 | 10.63122 | 17279 ft | 403 kts | 64° |
| 2026-04-27 17:06 | 57.26145 | 10.67893 | 18006 ft | 408 kts | 64° |
| 2026-04-27 17:07 | 57.27280 | 10.72657 | 18695 ft | 413 kts | 64° |
| 2026-04-27 17:07 | 57.28435 | 10.77539 | 19312 ft | 417 kts | 64° |
| 2026-04-27 17:07 | 57.29602 | 10.82496 | 19934 ft | 421 kts | 64° |
| 2026-04-27 17:07 | 57.30780 | 10.87480 | 20553 ft | 425 kts | 64° |
| 2026-04-27 17:08 | 57.31963 | 10.92533 | 21163 ft | 429 kts | 64° |
| 2026-04-27 17:08 | 57.33164 | 10.97626 | 21782 ft | 433 kts | 64° |
| 2026-04-27 17:08 | 57.34147 | 11.02928 | 22376 ft | 442 kts | 77° |
| 2026-04-27 17:08 | 57.34315 | 11.08652 | 23014 ft | 448 kts | 89° |
| 2026-04-27 17:09 | 57.34205 | 11.14449 | 23645 ft | 452 kts | 90° |
| 2026-04-27 17:09 | 57.34157 | 11.20238 | 24164 ft | 457 kts | 88° |
| 2026-04-27 17:09 | 57.34219 | 11.26138 | 24685 ft | 460 kts | 86° |
| 2026-04-27 17:09 | 57.34336 | 11.32084 | 25227 ft | 463 kts | 86° |
| 2026-04-27 17:10 | 57.34466 | 11.38078 | 25760 ft | 466 kts | 85° |
| 2026-04-27 17:10 | 57.34600 | 11.44089 | 26288 ft | 469 kts | 85° |
| 2026-04-27 17:10 | 57.34731 | 11.50144 | 26817 ft | 472 kts | 86° |
| 2026-04-27 17:10 | 57.34828 | 11.56222 | 27412 ft | 473 kts | 86° |
| 2026-04-27 17:11 | 57.34938 | 11.62319 | 27941 ft | 476 kts | 86° |
| 2026-04-27 17:11 | 57.35133 | 11.74498 | 29463 ft | 471 kts | 86° |
| 2026-04-27 17:11 | 57.35241 | 11.80561 | 30209 ft | 469 kts | 86° |
| 2026-04-27 17:12 | 57.35409 | 11.92527 | 31413 ft | 467 kts | 86° |
| 2026-04-27 17:12 | 57.35452 | 11.98535 | 32029 ft | 465 kts | 88° |
| 2026-04-27 17:12 | 57.35449 | 12.04467 | 32890 ft | 458 kts | 88° |
| 2026-04-27 17:13 | 57.35458 | 12.10350 | 33553 ft | 455 kts | 88° |
| 2026-04-27 17:13 | 57.35497 | 12.16200 | 34130 ft | 454 kts | 87° |
| 2026-04-27 17:13 | 57.35550 | 12.22066 | 34616 ft | 454 kts | 87° |
| 2026-04-27 17:13 | 57.35574 | 12.27918 | 35033 ft | 455 kts | 87° |
| 2026-04-27 17:14 | 57.35602 | 12.33781 | 35428 ft | 455 kts | 87° |
| 2026-04-27 17:14 | 57.35639 | 12.39646 | 35813 ft | 456 kts | 87° |
| 2026-04-27 17:14 | 57.35659 | 12.45528 | 36212 ft | 457 kts | 87° |
| 2026-04-27 17:14 | 57.35678 | 12.51347 | 36581 ft | 458 kts | 87° |
| 2026-04-27 17:15 | 57.35701 | 12.57256 | 36926 ft | 459 kts | 87° |
| 2026-04-27 17:15 | 57.35721 | 12.63158 | 37314 ft | 459 kts | 87° |
| 2026-04-27 17:15 | 57.35737 | 12.69079 | 37653 ft | 460 kts | 87° |
| 2026-04-27 17:15 | 57.35748 | 12.75017 | 38014 ft | 460 kts | 87° |
| 2026-04-27 17:16 | 57.35757 | 12.80970 | 38349 ft | 461 kts | 87° |
| 2026-04-27 17:16 | 57.35761 | 12.86923 | 38699 ft | 462 kts | 87° |
| 2026-04-27 17:16 | 57.35762 | 12.92882 | 39000 ft | 463 kts | 87° |
| 2026-04-27 17:16 | 57.35760 | 12.98789 | 39181 ft | 466 kts | 87° |
| 2026-04-27 17:17 | 57.35755 | 13.04795 | 39276 ft | 466 kts | 87° |
| 2026-04-27 17:17 | 57.35736 | 13.16786 | 39302 ft | 464 kts | 87° |
| 2026-04-27 17:18 | 57.35686 | 13.34715 | 39298 ft | 464 kts | 87° |
| 2026-04-27 17:18 | 57.35641 | 13.46677 | 39310 ft | 464 kts | 87° |
| 2026-04-27 17:19 | 57.35585 | 13.58657 | 39302 ft | 464 kts | 87° |
| 2026-04-27 17:19 | 57.35519 | 13.70575 | 39296 ft | 465 kts | 88° |
| 2026-04-27 17:20 | 57.35440 | 13.82556 | 39296 ft | 465 kts | 88° |
| 2026-04-27 17:20 | 57.35348 | 13.94556 | 39299 ft | 465 kts | 88° |
| 2026-04-27 17:21 | 57.35248 | 14.06478 | 39295 ft | 466 kts | 88° |
| 2026-04-27 17:21 | 57.35137 | 14.18476 | 39297 ft | 466 kts | 88° |
| 2026-04-27 17:22 | 57.35030 | 14.30489 | 39295 ft | 466 kts | 88° |
| 2026-04-27 17:22 | 57.34907 | 14.42503 | 39293 ft | 467 kts | 88° |
| 2026-04-27 17:23 | 57.34772 | 14.54529 | 39296 ft | 467 kts | 88° |
| 2026-04-27 17:23 | 57.34631 | 14.66486 | 39295 ft | 467 kts | 88° |
| 2026-04-27 17:24 | 57.34479 | 14.78521 | 39295 ft | 468 kts | 88° |
| 2026-04-27 17:24 | 57.34318 | 14.90568 | 39295 ft | 468 kts | 88° |
| 2026-04-27 17:25 | 57.34128 | 15.02653 | 39293 ft | 468 kts | 88° |
| 2026-04-27 17:25 | 57.33930 | 15.14727 | 39292 ft | 469 kts | 88° |
| 2026-04-27 17:26 | 57.33712 | 15.26711 | 39292 ft | 469 kts | 88° |
| 2026-04-27 17:26 | 57.33488 | 15.38794 | 39298 ft | 469 kts | 88° |
| 2026-04-27 17:27 | 57.33250 | 15.50894 | 39284 ft | 470 kts | 89° |
| 2026-04-27 17:27 | 57.33011 | 15.62991 | 39296 ft | 470 kts | 89° |
| 2026-04-27 17:28 | 57.32751 | 15.75022 | 39286 ft | 470 kts | 88° |
| 2026-04-27 17:29 | 57.32338 | 15.93186 | 39284 ft | 471 kts | 89° |
| 2026-04-27 17:29 | 57.32047 | 16.05300 | 39299 ft | 471 kts | 89° |
| 2026-04-27 17:30 | 57.31742 | 16.17415 | 39289 ft | 471 kts | 89° |
| 2026-04-27 17:30 | 57.31280 | 16.35520 | 39286 ft | 471 kts | 89° |
| 2026-04-27 17:31 | 57.30951 | 16.47638 | 39296 ft | 471 kts | 89° |
| 2026-04-27 17:31 | 57.30607 | 16.59771 | 39293 ft | 471 kts | 89° |
| 2026-04-27 17:32 | 57.30070 | 16.77876 | 39288 ft | 472 kts | 89° |
| 2026-04-27 17:33 | 57.29694 | 16.90013 | 39294 ft | 472 kts | 89° |
| 2026-04-27 17:33 | 57.29316 | 17.02135 | 39298 ft | 472 kts | 89° |
| 2026-04-27 17:34 | 57.28921 | 17.14277 | 39288 ft | 473 kts | 89° |
| 2026-04-27 17:34 | 57.28586 | 17.24364 | 39298 ft | 473 kts | 89° |
| 2026-04-27 17:35 | 57.28170 | 17.36446 | 39292 ft | 473 kts | 89° |
| 2026-04-27 17:35 | 57.27740 | 17.48589 | 39295 ft | 473 kts | 89° |
| 2026-04-27 17:36 | 57.27302 | 17.60741 | 39282 ft | 473 kts | 90° |
| 2026-04-27 17:36 | 57.26852 | 17.72910 | 39288 ft | 473 kts | 90° |
| 2026-04-27 17:37 | 57.26391 | 17.85045 | 39290 ft | 473 kts | 90° |
| 2026-04-27 17:37 | 57.25907 | 17.97180 | 39290 ft | 474 kts | 89° |
| 2026-04-27 17:38 | 57.25436 | 18.09262 | 39289 ft | 473 kts | 90° |
| 2026-04-27 17:38 | 57.24931 | 18.21418 | 39279 ft | 474 kts | 90° |
| 2026-04-27 17:39 | 57.24421 | 18.33490 | 39281 ft | 474 kts | 90° |
| 2026-04-27 17:39 | 57.23905 | 18.45625 | 39277 ft | 474 kts | 90° |
| 2026-04-27 17:40 | 57.23384 | 18.57768 | 39276 ft | 474 kts | 90° |
| 2026-04-27 17:40 | 57.22856 | 18.69924 | 39275 ft | 475 kts | 90° |
| 2026-04-27 17:41 | 57.22324 | 18.82097 | 39269 ft | 475 kts | 90° |
| 2026-04-27 17:41 | 57.21750 | 18.94173 | 39265 ft | 475 kts | 90° |
| 2026-04-27 17:42 | 57.21162 | 19.06342 | 39262 ft | 476 kts | 90° |
| 2026-04-27 17:42 | 57.20573 | 19.18501 | 39271 ft | 476 kts | 91° |
| 2026-04-27 17:43 | 57.19967 | 19.30679 | 39262 ft | 477 kts | 91° |
| 2026-04-27 17:43 | 57.19348 | 19.42859 | 39261 ft | 477 kts | 91° |
| 2026-04-27 17:44 | 57.18716 | 19.55071 | 39264 ft | 478 kts | 91° |
| 2026-04-27 17:44 | 57.18072 | 19.67273 | 39264 ft | 478 kts | 91° |
| 2026-04-27 17:45 | 57.17414 | 19.79402 | 39253 ft | 479 kts | 91° |
| 2026-04-27 17:45 | 57.16741 | 19.91617 | 39258 ft | 479 kts | 92° |
| 2026-04-27 17:46 | 57.15362 | 20.03712 | 39252 ft | 484 kts | 100° |
| 2026-04-27 17:46 | 57.13949 | 20.15815 | 39261 ft | 482 kts | 96° |
| 2026-04-27 17:47 | 57.12786 | 20.28015 | 39245 ft | 483 kts | 96° |
| 2026-04-27 17:47 | 57.11579 | 20.40172 | 39250 ft | 483 kts | 96° |
| 2026-04-27 17:48 | 57.10346 | 20.52337 | 39243 ft | 484 kts | 97° |
| 2026-04-27 17:48 | 57.09110 | 20.64492 | 39247 ft | 483 kts | 97° |
| 2026-04-27 17:49 | 57.07879 | 20.76578 | 39236 ft | 484 kts | 97° |
| 2026-04-27 17:49 | 57.06638 | 20.88738 | 39231 ft | 484 kts | 97° |
| 2026-04-27 17:50 | 57.05391 | 21.00921 | 39230 ft | 484 kts | 97° |
| 2026-04-27 17:50 | 57.03456 | 21.19142 | 39228 ft | 484 kts | 97° |
| 2026-04-27 17:51 | 57.02155 | 21.31223 | 39221 ft | 485 kts | 97° |
| 2026-04-27 17:51 | 57.00832 | 21.43358 | 39217 ft | 485 kts | 97° |
| 2026-04-27 17:52 | 56.99501 | 21.55484 | 39211 ft | 485 kts | 97° |
| 2026-04-27 17:52 | 56.98162 | 21.67625 | 39206 ft | 485 kts | 98° |
| 2026-04-27 17:53 | 56.96828 | 21.79660 | 39201 ft | 485 kts | 98° |
| 2026-04-27 17:53 | 56.95465 | 21.91764 | 39204 ft | 485 kts | 98° |
| 2026-04-27 17:54 | 56.94091 | 22.03868 | 39192 ft | 485 kts | 98° |
| 2026-04-27 17:54 | 56.92713 | 22.15982 | 39193 ft | 485 kts | 98° |
| 2026-04-27 17:55 | 56.91346 | 22.28003 | 39178 ft | 484 kts | 98° |
| 2026-04-27 17:55 | 56.89940 | 22.40087 | 39180 ft | 485 kts | 99° |
| 2026-04-27 17:56 | 56.88443 | 22.52115 | 39176 ft | 484 kts | 98° |
| 2026-04-27 17:56 | 56.87054 | 22.64163 | 39170 ft | 484 kts | 98° |
| 2026-04-27 17:57 | 56.85687 | 22.76126 | 39166 ft | 483 kts | 98° |
| 2026-04-27 17:57 | 56.84314 | 22.88149 | 39155 ft | 483 kts | 98° |
| 2026-04-27 17:58 | 56.82941 | 23.00180 | 39161 ft | 483 kts | 98° |
| 2026-04-27 17:58 | 56.81525 | 23.12191 | 39151 ft | 483 kts | 99° |
| 2026-04-27 17:59 | 56.80103 | 23.24171 | 39145 ft | 483 kts | 99° |
| 2026-04-27 17:59 | 56.78675 | 23.36158 | 39140 ft | 483 kts | 99° |
| 2026-04-27 18:00 | 56.77234 | 23.48066 | 39135 ft | 483 kts | 99° |
| 2026-04-27 18:00 | 56.75767 | 23.60023 | 39130 ft | 483 kts | 99° |
| 2026-04-27 18:01 | 56.74311 | 23.71973 | 39120 ft | 483 kts | 99° |
| 2026-04-27 18:01 | 56.72833 | 23.83931 | 39110 ft | 483 kts | 99° |
| 2026-04-27 18:02 | 56.71351 | 23.95868 | 39106 ft | 483 kts | 99° |
| 2026-04-27 18:02 | 56.69865 | 24.07795 | 39106 ft | 483 kts | 99° |
| 2026-04-27 18:03 | 56.68364 | 24.19723 | 39111 ft | 483 kts | 100° |
| 2026-04-27 18:03 | 56.66840 | 24.31609 | 39117 ft | 482 kts | 100° |
| 2026-04-27 18:04 | 56.65311 | 24.43409 | 39098 ft | 483 kts | 100° |
| 2026-04-27 18:04 | 56.63762 | 24.55280 | 39094 ft | 482 kts | 100° |
| 2026-04-27 18:05 | 56.62201 | 24.67138 | 39081 ft | 482 kts | 100° |
| 2026-04-27 18:05 | 56.60626 | 24.78972 | 39078 ft | 482 kts | 100° |
| 2026-04-27 18:06 | 56.59412 | 24.90884 | 39082 ft | 478 kts | 93° |
| 2026-04-27 18:06 | 56.58796 | 25.02818 | 39077 ft | 477 kts | 92° |
| 2026-04-27 18:07 | 56.58137 | 25.14799 | 39075 ft | 477 kts | 93° |
| 2026-04-27 18:07 | 56.57423 | 25.26795 | 39066 ft | 478 kts | 94° |
| 2026-04-27 18:08 | 56.56644 | 25.38756 | 39074 ft | 477 kts | 93° |
| 2026-04-27 18:08 | 56.55917 | 25.50664 | 39064 ft | 477 kts | 94° |
| 2026-04-27 18:09 | 56.55158 | 25.62613 | 39059 ft | 477 kts | 94° |
| 2026-04-27 18:09 | 56.54383 | 25.74554 | 39064 ft | 476 kts | 94° |
| 2026-04-27 18:10 | 56.53594 | 25.86494 | 39059 ft | 477 kts | 94° |
| 2026-04-27 18:10 | 56.52805 | 25.98429 | 39045 ft | 477 kts | 94° |
| 2026-04-27 18:11 | 56.52012 | 26.10286 | 39039 ft | 477 kts | 94° |
| 2026-04-27 18:11 | 56.51196 | 26.22231 | 39036 ft | 477 kts | 94° |
| 2026-04-27 18:12 | 56.50377 | 26.34143 | 39027 ft | 477 kts | 94° |
| 2026-04-27 18:12 | 56.49556 | 26.46055 | 39036 ft | 477 kts | 94° |
| 2026-04-27 18:13 | 56.48733 | 26.57959 | 39021 ft | 477 kts | 94° |
| 2026-04-27 18:13 | 56.47825 | 26.69864 | 39023 ft | 477 kts | 95° |
| 2026-04-27 18:14 | 56.46909 | 26.81679 | 39015 ft | 477 kts | 95° |
| 2026-04-27 18:14 | 56.46038 | 26.93574 | 39018 ft | 477 kts | 95° |
| 2026-04-27 18:15 | 56.45148 | 27.05456 | 39007 ft | 477 kts | 95° |
| 2026-04-27 18:15 | 56.44229 | 27.17334 | 39008 ft | 477 kts | 95° |
| 2026-04-27 18:16 | 56.43324 | 27.29151 | 38995 ft | 477 kts | 95° |
| 2026-04-27 18:16 | 56.42393 | 27.41024 | 38989 ft | 477 kts | 96° |
| 2026-04-27 18:17 | 56.41456 | 27.52900 | 38988 ft | 477 kts | 96° |
| 2026-04-27 18:17 | 56.40521 | 27.64765 | 38981 ft | 477 kts | 96° |
| 2026-04-27 18:18 | 56.39585 | 27.76634 | 38976 ft | 477 kts | 96° |
| 2026-04-27 18:18 | 56.38618 | 27.88491 | 38964 ft | 477 kts | 96° |
| 2026-04-27 18:19 | 56.37646 | 28.00270 | 38953 ft | 477 kts | 96° |
| 2026-04-27 18:19 | 56.36645 | 28.12133 | 38957 ft | 477 kts | 96° |
| 2026-04-27 18:20 | 56.35785 | 28.21964 | 38952 ft | 477 kts | 97° |
| 2026-04-27 18:20 | 56.34665 | 28.33780 | 38953 ft | 477 kts | 97° |
| 2026-04-27 18:21 | 56.33598 | 28.45595 | 38940 ft | 477 kts | 97° |
| 2026-04-27 18:21 | 56.32533 | 28.57423 | 38940 ft | 477 kts | 97° |
| 2026-04-27 18:22 | 56.31474 | 28.69168 | 38930 ft | 478 kts | 97° |
| 2026-04-27 18:22 | 56.30370 | 28.80966 | 38921 ft | 477 kts | 97° |
| 2026-04-27 18:23 | 56.29261 | 28.92771 | 38922 ft | 477 kts | 97° |
| 2026-04-27 18:23 | 56.28140 | 29.04570 | 38914 ft | 478 kts | 97° |
| 2026-04-27 18:24 | 56.26999 | 29.16336 | 38907 ft | 478 kts | 98° |
| 2026-04-27 18:24 | 56.25861 | 29.28043 | 38903 ft | 478 kts | 97° |
| 2026-04-27 18:25 | 56.24722 | 29.39820 | 38901 ft | 478 kts | 98° |
| 2026-04-27 18:25 | 56.23579 | 29.51600 | 38903 ft | 477 kts | 98° |
| 2026-04-27 18:26 | 56.22435 | 29.63295 | 38893 ft | 477 kts | 98° |
| 2026-04-27 18:26 | 56.21254 | 29.75053 | 38890 ft | 477 kts | 98° |
| 2026-04-27 18:27 | 56.20082 | 29.86797 | 38891 ft | 477 kts | 98° |
| 2026-04-27 18:27 | 56.18888 | 29.98523 | 38875 ft | 477 kts | 98° |
| 2026-04-27 18:28 | 56.17690 | 30.10255 | 38879 ft | 477 kts | 98° |
| 2026-04-27 18:28 | 56.16494 | 30.21975 | 38870 ft | 478 kts | 98° |
| 2026-04-27 18:29 | 56.15231 | 30.33689 | 38864 ft | 478 kts | 99° |
| 2026-04-27 18:29 | 56.13997 | 30.45308 | 38861 ft | 477 kts | 98° |
| 2026-04-27 18:30 | 56.12733 | 30.57022 | 38856 ft | 478 kts | 99° |
| 2026-04-27 18:30 | 56.11486 | 30.68725 | 38854 ft | 478 kts | 99° |
| 2026-04-27 18:31 | 56.10219 | 30.80403 | 38846 ft | 477 kts | 98° |
| 2026-04-27 18:31 | 56.08940 | 30.92087 | 38839 ft | 478 kts | 99° |
| 2026-04-27 18:32 | 56.07665 | 31.03695 | 38829 ft | 477 kts | 99° |
| 2026-04-27 18:32 | 56.06387 | 31.15365 | 38832 ft | 477 kts | 99° |
| 2026-04-27 18:33 | 56.05090 | 31.27036 | 38822 ft | 477 kts | 99° |
| 2026-04-27 18:33 | 56.03812 | 31.38613 | 38818 ft | 477 kts | 99° |
| 2026-04-27 18:34 | 56.02500 | 31.50254 | 38810 ft | 477 kts | 99° |
| 2026-04-27 18:34 | 56.01192 | 31.61868 | 38811 ft | 476 kts | 99° |
| 2026-04-27 18:35 | 55.99882 | 31.73477 | 38805 ft | 476 kts | 99° |
| 2026-04-27 18:35 | 55.98569 | 31.85090 | 38795 ft | 476 kts | 99° |
| 2026-04-27 18:36 | 55.97240 | 31.96610 | 38797 ft | 476 kts | 100° |
| 2026-04-27 18:36 | 55.95828 | 32.08163 | 38786 ft | 476 kts | 101° |
| 2026-04-27 18:37 | 55.94459 | 32.19742 | 38778 ft | 476 kts | 100° |
| 2026-04-27 18:37 | 55.93065 | 32.31319 | 38767 ft | 476 kts | 100° |
| 2026-04-27 18:38 | 55.91681 | 32.42794 | 38755 ft | 476 kts | 101° |
| 2026-04-27 18:38 | 55.90280 | 32.54349 | 38747 ft | 477 kts | 101° |
| 2026-04-27 18:39 | 55.88872 | 32.65877 | 38755 ft | 476 kts | 101° |
| 2026-04-27 18:39 | 55.87451 | 32.77402 | 38748 ft | 476 kts | 101° |
| 2026-04-27 18:40 | 55.86020 | 32.88941 | 38741 ft | 476 kts | 101° |
| 2026-04-27 18:40 | 55.85161 | 33.00479 | 38746 ft | 471 kts | 85° |
| 2026-04-27 18:41 | 55.85805 | 33.12107 | 38728 ft | 471 kts | 82° |
| 2026-04-27 18:41 | 55.86323 | 33.23764 | 38716 ft | 473 kts | 84° |
| 2026-04-27 18:42 | 55.86603 | 33.33510 | 38708 ft | 473 kts | 85° |
| 2026-04-27 18:42 | 55.87004 | 33.47194 | 38694 ft | 473 kts | 85° |
| 2026-04-27 18:43 | 55.87344 | 33.58837 | 38684 ft | 474 kts | 85° |
| 2026-04-27 18:43 | 55.87651 | 33.70567 | 38680 ft | 474 kts | 85° |
| 2026-04-27 18:44 | 55.87961 | 33.82300 | 38674 ft | 474 kts | 86° |
| 2026-04-27 18:44 | 55.88265 | 33.94051 | 38667 ft | 474 kts | 86° |
| 2026-04-27 18:45 | 55.88550 | 34.05740 | 38665 ft | 475 kts | 85° |
| 2026-04-27 18:45 | 55.88825 | 34.17514 | 38645 ft | 475 kts | 85° |
| 2026-04-27 18:46 | 55.89084 | 34.29290 | 38649 ft | 475 kts | 85° |
| 2026-04-27 18:46 | 55.89305 | 34.40988 | 38640 ft | 476 kts | 87° |
| 2026-04-27 18:47 | 55.89504 | 34.52797 | 38628 ft | 476 kts | 86° |
| 2026-04-27 18:47 | 55.89735 | 34.64596 | 38610 ft | 476 kts | 86° |
| 2026-04-27 18:48 | 55.89964 | 34.76402 | 38619 ft | 476 kts | 87° |
| 2026-04-27 18:48 | 55.90153 | 34.88118 | 38593 ft | 476 kts | 86° |
| 2026-04-27 18:49 | 55.90337 | 34.99923 | 38595 ft | 476 kts | 87° |
| 2026-04-27 18:49 | 55.90512 | 35.11744 | 38571 ft | 477 kts | 87° |
| 2026-04-27 18:50 | 55.90653 | 35.23560 | 38569 ft | 476 kts | 87° |
| 2026-04-27 18:50 | 55.90825 | 35.35282 | 38563 ft | 476 kts | 88° |
| 2026-04-27 18:51 | 55.90969 | 35.47078 | 38540 ft | 476 kts | 88° |
| 2026-04-27 18:51 | 55.91112 | 35.58867 | 38539 ft | 475 kts | 88° |
| 2026-04-27 18:52 | 55.91261 | 35.70632 | 38510 ft | 475 kts | 88° |
| 2026-04-27 18:53 | 55.91523 | 35.88292 | 38504 ft | 475 kts | 86° |
| 2026-04-27 18:53 | 55.92027 | 36.00043 | 38490 ft | 475 kts | 84° |
| 2026-04-27 18:54 | 55.92592 | 36.11775 | 38477 ft | 475 kts | 85° |
| 2026-04-27 18:54 | 55.93088 | 36.23461 | 38461 ft | 475 kts | 85° |
| 2026-04-27 18:55 | 55.93585 | 36.35218 | 38459 ft | 475 kts | 85° |
| 2026-04-27 18:55 | 55.94087 | 36.46959 | 38441 ft | 475 kts | 85° |
| 2026-04-27 18:56 | 55.94594 | 36.58707 | 38433 ft | 475 kts | 85° |
| 2026-04-27 18:56 | 55.95050 | 36.70453 | 38427 ft | 474 kts | 85° |
| 2026-04-27 18:57 | 55.95511 | 36.82142 | 38383 ft | 476 kts | 86° |
| 2026-04-27 18:57 | 55.95949 | 36.93923 | 38366 ft | 475 kts | 85° |
| 2026-04-27 18:58 | 55.96379 | 37.05704 | 38352 ft | 475 kts | 86° |
| 2026-04-27 18:58 | 55.96799 | 37.17490 | 38335 ft | 476 kts | 86° |
| 2026-04-27 18:59 | 55.97225 | 37.29287 | 38328 ft | 475 kts | 86° |
| 2026-04-27 18:59 | 55.97584 | 37.41090 | 38333 ft | 475 kts | 87° |
| 2026-04-27 19:00 | 55.97906 | 37.52810 | 38332 ft | 475 kts | 87° |
| 2026-04-27 19:00 | 55.98264 | 37.64618 | 38333 ft | 475 kts | 87° |
| 2026-04-27 19:01 | 55.98594 | 37.76406 | 38327 ft | 475 kts | 87° |
| 2026-04-27 19:01 | 55.98919 | 37.88189 | 38317 ft | 476 kts | 86° |
| 2026-04-27 19:02 | 55.99259 | 38.00005 | 38300 ft | 476 kts | 87° |
| 2026-04-27 19:02 | 55.99581 | 38.11795 | 38290 ft | 475 kts | 87° |
| 2026-04-27 19:03 | 55.99907 | 38.23533 | 38270 ft | 475 kts | 87° |
| 2026-04-27 19:03 | 56.00239 | 38.35343 | 38275 ft | 475 kts | 87° |
| 2026-04-27 19:04 | 56.00533 | 38.47152 | 38254 ft | 475 kts | 88° |
| 2026-04-27 19:04 | 56.00810 | 38.58875 | 38259 ft | 475 kts | 88° |
| 2026-04-27 19:05 | 56.01080 | 38.70671 | 38257 ft | 475 kts | 88° |
| 2026-04-27 19:05 | 56.01332 | 38.82481 | 38248 ft | 475 kts | 88° |
| 2026-04-27 19:06 | 56.01585 | 38.94281 | 38230 ft | 475 kts | 88° |
| 2026-04-27 19:06 | 56.01824 | 39.06082 | 38233 ft | 475 kts | 88° |
| 2026-04-27 19:07 | 56.02060 | 39.17795 | 38238 ft | 474 kts | 88° |
| 2026-04-27 19:07 | 56.02300 | 39.29603 | 38244 ft | 474 kts | 89° |
| 2026-04-27 19:08 | 56.02493 | 39.41395 | 38238 ft | 475 kts | 89° |
| 2026-04-27 19:08 | 56.02673 | 39.53182 | 38238 ft | 475 kts | 89° |
| 2026-04-27 19:09 | 56.02847 | 39.65011 | 38235 ft | 475 kts | 90° |
| 2026-04-27 19:09 | 56.02951 | 39.76779 | 38233 ft | 476 kts | 89° |
| 2026-04-27 19:09 | 56.03349 | 39.82632 | 38243 ft | 474 kts | 72° |
| 2026-04-27 19:10 | 56.04718 | 39.87955 | 38272 ft | 473 kts | 58° |
| 2026-04-27 19:10 | 56.07784 | 39.96088 | 38258 ft | 476 kts | 57° |
| 2026-04-27 19:11 | 56.11097 | 40.06375 | 38235 ft | 476 kts | 63° |
| 2026-04-27 19:11 | 56.14110 | 40.16952 | 38224 ft | 476 kts | 63° |
| 2026-04-27 19:12 | 56.17164 | 40.27507 | 38215 ft | 477 kts | 63° |
| 2026-04-27 19:12 | 56.20218 | 40.38028 | 38214 ft | 476 kts | 63° |
| 2026-04-27 19:13 | 56.23279 | 40.48576 | 38206 ft | 476 kts | 63° |
| 2026-04-27 19:13 | 56.26303 | 40.59178 | 38206 ft | 476 kts | 64° |
| 2026-04-27 19:13 | 56.27421 | 40.64755 | 38240 ft | 472 kts | 82° |
| 2026-04-27 19:14 | 56.27482 | 40.70597 | 38243 ft | 466 kts | 101° |
| 2026-04-27 19:14 | 56.25853 | 40.81916 | 38229 ft | 470 kts | 103° |
| 2026-04-27 19:15 | 56.25041 | 40.93610 | 38219 ft | 472 kts | 95° |
| 2026-04-27 19:15 | 56.24675 | 41.05416 | 38217 ft | 473 kts | 95° |
| 2026-04-27 19:16 | 56.24205 | 41.17212 | 38219 ft | 473 kts | 96° |
| 2026-04-27 19:16 | 56.23697 | 41.28917 | 38224 ft | 473 kts | 96° |
| 2026-04-27 19:17 | 56.23181 | 41.40705 | 38224 ft | 472 kts | 96° |
| 2026-04-27 19:17 | 56.22636 | 41.52488 | 38221 ft | 473 kts | 96° |
| 2026-04-27 19:18 | 56.22083 | 41.64261 | 38230 ft | 473 kts | 96° |
| 2026-04-27 19:18 | 56.21516 | 41.76049 | 38236 ft | 473 kts | 96° |
| 2026-04-27 19:19 | 56.20953 | 41.87734 | 38239 ft | 472 kts | 97° |
| 2026-04-27 19:19 | 56.20370 | 41.99501 | 38249 ft | 472 kts | 97° |
| 2026-04-27 19:20 | 56.19760 | 42.11256 | 38262 ft | 472 kts | 97° |
| 2026-04-27 19:20 | 56.19088 | 42.22995 | 38238 ft | 473 kts | 97° |
| 2026-04-27 19:21 | 56.18468 | 42.34745 | 38271 ft | 472 kts | 97° |
| 2026-04-27 19:21 | 56.17825 | 42.46417 | 38263 ft | 472 kts | 97° |
| 2026-04-27 19:22 | 56.17173 | 42.58145 | 38260 ft | 472 kts | 97° |
| 2026-04-27 19:22 | 56.16511 | 42.69862 | 38286 ft | 471 kts | 98° |
| 2026-04-27 19:23 | 56.15832 | 42.81578 | 38285 ft | 472 kts | 98° |
| 2026-04-27 19:23 | 56.15146 | 42.93213 | 38279 ft | 472 kts | 98° |
| 2026-04-27 19:24 | 56.14444 | 43.04904 | 38291 ft | 472 kts | 98° |
| 2026-04-27 19:24 | 56.13742 | 43.16624 | 38307 ft | 472 kts | 98° |
| 2026-04-27 19:25 | 56.12619 | 43.28144 | 38322 ft | 467 kts | 110° |
| 2026-04-27 19:25 | 56.10472 | 43.39125 | 38332 ft | 467 kts | 112° |
| 2026-04-27 19:26 | 56.08422 | 43.50150 | 38325 ft | 467 kts | 110° |
| 2026-04-27 19:26 | 56.06501 | 43.61170 | 38337 ft | 466 kts | 110° |
| 2026-04-27 19:27 | 56.04526 | 43.72226 | 38335 ft | 466 kts | 110° |
| 2026-04-27 19:27 | 56.02552 | 43.83281 | 38334 ft | 466 kts | 110° |
| 2026-04-27 19:28 | 56.00581 | 43.94333 | 38347 ft | 466 kts | 110° |
| 2026-04-27 19:28 | 55.98587 | 44.05348 | 38351 ft | 465 kts | 111° |
| 2026-04-27 19:29 | 55.96578 | 44.16342 | 38366 ft | 466 kts | 111° |
| 2026-04-27 19:29 | 55.94574 | 44.27242 | 38376 ft | 465 kts | 111° |
| 2026-04-27 19:30 | 55.92542 | 44.38233 | 38388 ft | 465 kts | 111° |
| 2026-04-27 19:30 | 55.90498 | 44.49193 | 38398 ft | 465 kts | 111° |
| 2026-04-27 19:31 | 55.88446 | 44.60144 | 38400 ft | 465 kts | 111° |
| 2026-04-27 19:31 | 55.86401 | 44.70997 | 38420 ft | 465 kts | 111° |
| 2026-04-27 19:32 | 55.84335 | 44.81915 | 38416 ft | 465 kts | 111° |
| 2026-04-27 19:32 | 55.82274 | 44.92830 | 38430 ft | 465 kts | 111° |
| 2026-04-27 19:33 | 55.80215 | 45.03717 | 38427 ft | 465 kts | 111° |
| 2026-04-27 19:33 | 55.78142 | 45.14603 | 38448 ft | 464 kts | 112° |
| 2026-04-27 19:34 | 55.76037 | 45.25455 | 38449 ft | 465 kts | 111° |
| 2026-04-27 19:34 | 55.73919 | 45.36293 | 38457 ft | 464 kts | 111° |
| 2026-04-27 19:35 | 55.71810 | 45.47039 | 38469 ft | 464 kts | 112° |
| 2026-04-27 19:35 | 55.69683 | 45.57854 | 38472 ft | 464 kts | 112° |
| 2026-04-27 19:36 | 55.67546 | 45.68665 | 38482 ft | 464 kts | 112° |
| 2026-04-27 19:36 | 55.65390 | 45.79448 | 38487 ft | 464 kts | 112° |
| 2026-04-27 19:37 | 55.63175 | 45.90096 | 38489 ft | 463 kts | 114° |
| 2026-04-27 19:37 | 55.60952 | 46.00819 | 38506 ft | 464 kts | 112° |
| 2026-04-27 19:38 | 55.58785 | 46.11571 | 38514 ft | 464 kts | 112° |
| 2026-04-27 19:38 | 55.56618 | 46.22349 | 38506 ft | 464 kts | 112° |
| 2026-04-27 19:39 | 55.54417 | 46.33063 | 38513 ft | 464 kts | 112° |
| 2026-04-27 19:39 | 55.52206 | 46.43774 | 38526 ft | 464 kts | 113° |
| 2026-04-27 19:39 | 55.50819 | 46.48837 | 38538 ft | 455 kts | 129° |
| 2026-04-27 19:40 | 55.48657 | 46.52688 | 38564 ft | 444 kts | 149° |
| 2026-04-27 19:40 | 55.43306 | 46.58170 | 38551 ft | 447 kts | 150° |
| 2026-04-27 19:41 | 55.38323 | 46.64818 | 38547 ft | 451 kts | 142° |
| 2026-04-27 19:41 | 55.33572 | 46.72049 | 38562 ft | 451 kts | 142° |
| 2026-04-27 19:41 | 55.31161 | 46.75626 | 38361 ft | 454 kts | 143° |
| 2026-04-27 19:42 | 55.28730 | 46.79189 | 37899 ft | 455 kts | 143° |
| 2026-04-27 19:42 | 55.26334 | 46.82692 | 37343 ft | 455 kts | 143° |
| 2026-04-27 19:42 | 55.23895 | 46.86256 | 36785 ft | 453 kts | 144° |
| 2026-04-27 19:42 | 55.21466 | 46.89753 | 36244 ft | 451 kts | 144° |
| 2026-04-27 19:43 | 55.19052 | 46.93274 | 35719 ft | 450 kts | 144° |
| 2026-04-27 19:43 | 55.16641 | 46.96764 | 35179 ft | 449 kts | 144° |
| 2026-04-27 19:43 | 55.14228 | 47.00245 | 34687 ft | 449 kts | 144° |
| 2026-04-27 19:43 | 55.11821 | 47.03730 | 34186 ft | 448 kts | 144° |
| 2026-04-27 19:44 | 55.09422 | 47.07219 | 33711 ft | 448 kts | 144° |
| 2026-04-27 19:44 | 55.07066 | 47.10666 | 33145 ft | 447 kts | 144° |
| 2026-04-27 19:44 | 55.04671 | 47.14143 | 32580 ft | 446 kts | 145° |
| 2026-04-27 19:44 | 55.02267 | 47.17580 | 32016 ft | 446 kts | 145° |
| 2026-04-27 19:45 | 54.99864 | 47.21008 | 31472 ft | 446 kts | 145° |
| 2026-04-27 19:45 | 54.97469 | 47.24432 | 30940 ft | 446 kts | 145° |
| 2026-04-27 19:45 | 54.95079 | 47.27856 | 30419 ft | 445 kts | 145° |
| 2026-04-27 19:45 | 54.92692 | 47.31289 | 29911 ft | 444 kts | 145° |
| 2026-04-27 19:46 | 54.90319 | 47.34712 | 29324 ft | 442 kts | 145° |
| 2026-04-27 19:46 | 54.87953 | 47.38075 | 28697 ft | 437 kts | 146° |
| 2026-04-27 19:46 | 54.85648 | 47.41510 | 28082 ft | 438 kts | 138° |
| 2026-04-27 19:46 | 54.83974 | 47.45962 | 27456 ft | 448 kts | 117° |
| 2026-04-27 19:47 | 54.83199 | 47.51162 | 26903 ft | 452 kts | 103° |
| 2026-04-27 19:47 | 54.82786 | 47.56563 | 26351 ft | 450 kts | 102° |
| 2026-04-27 19:47 | 54.82324 | 47.61901 | 25791 ft | 444 kts | 104° |
| 2026-04-27 19:47 | 54.81743 | 47.67126 | 25217 ft | 439 kts | 106° |
| 2026-04-27 19:48 | 54.81096 | 47.72274 | 24677 ft | 434 kts | 108° |
| 2026-04-27 19:48 | 54.80427 | 47.77363 | 24144 ft | 430 kts | 107° |
| 2026-04-27 19:48 | 54.79776 | 47.82411 | 23612 ft | 426 kts | 107° |
| 2026-04-27 19:48 | 54.79133 | 47.87399 | 23083 ft | 423 kts | 107° |
| 2026-04-27 19:49 | 54.78495 | 47.92352 | 22446 ft | 419 kts | 107° |
| 2026-04-27 19:49 | 54.77873 | 47.97197 | 21837 ft | 415 kts | 107° |
| 2026-04-27 19:49 | 54.77243 | 48.02045 | 21204 ft | 410 kts | 108° |
| 2026-04-27 19:49 | 54.76612 | 48.06844 | 20608 ft | 404 kts | 107° |
| 2026-04-27 19:50 | 54.75997 | 48.11554 | 20016 ft | 396 kts | 108° |
| 2026-04-27 19:50 | 54.75388 | 48.16158 | 19438 ft | 389 kts | 107° |
| 2026-04-27 19:50 | 54.74791 | 48.20679 | 18872 ft | 381 kts | 108° |
| 2026-04-27 19:50 | 54.74209 | 48.25070 | 18323 ft | 376 kts | 107° |
| 2026-04-27 19:51 | 54.73631 | 48.29405 | 17703 ft | 363 kts | 108° |
| 2026-04-27 19:51 | 54.73078 | 48.33605 | 17008 ft | 352 kts | 108° |
| 2026-04-27 19:51 | 54.72535 | 48.37669 | 16306 ft | 342 kts | 108° |
| 2026-04-27 19:51 | 54.72008 | 48.41628 | 15634 ft | 333 kts | 108° |
| 2026-04-27 19:52 | 54.71502 | 48.45499 | 14974 ft | 326 kts | 108° |
| 2026-04-27 19:52 | 54.71177 | 48.48017 | 14539 ft | 321 kts | 108° |
| 2026-04-27 19:52 | 54.70542 | 48.53010 | 13687 ft | 313 kts | 108° |
| 2026-04-27 19:52 | 54.70067 | 48.56651 | 13009 ft | 308 kts | 109° |
| 2026-04-27 19:53 | 54.69108 | 48.63743 | 11639 ft | 299 kts | 109° |
| 2026-04-27 19:53 | 54.68632 | 48.67216 | 10967 ft | 295 kts | 109° |
| 2026-04-27 19:53 | 54.68158 | 48.70654 | 10317 ft | 292 kts | 109° |
| 2026-04-27 19:54 | 54.67685 | 48.74041 | 9674 ft | 289 kts | 109° |
| 2026-04-27 19:54 | 54.67219 | 48.77359 | 8996 ft | 287 kts | 109° |
| 2026-04-27 19:54 | 54.66761 | 48.80699 | 8311 ft | 284 kts | 109° |
| 2026-04-27 19:54 | 54.66299 | 48.84007 | 7637 ft | 282 kts | 109° |
| 2026-04-27 19:55 | 54.65848 | 48.87292 | 6985 ft | 280 kts | 110° |
| 2026-04-27 19:55 | 54.65108 | 48.90322 | 6335 ft | 270 kts | 126° |
| 2026-04-27 19:55 | 54.64146 | 48.93084 | 5663 ft | 267 kts | 128° |
| 2026-04-27 19:55 | 54.63168 | 48.95800 | 5004 ft | 266 kts | 128° |
| 2026-04-27 19:56 | 54.62195 | 48.98505 | 4351 ft | 264 kts | 129° |
| 2026-04-27 19:56 | 54.60929 | 49.00573 | 3674 ft | 243 kts | 162° |
| 2026-04-27 19:56 | 54.59370 | 49.00836 | 3273 ft | 218 kts | 200° |
| 2026-04-27 19:56 | 54.58133 | 48.99493 | 3111 ft | 208 kts | 220° |
| 2026-04-27 19:57 | 54.57064 | 48.97951 | 2997 ft | 196 kts | 217° |
| 2026-04-27 19:57 | 54.55960 | 48.96790 | 3002 ft | 175 kts | 212° |
| 2026-04-27 19:57 | 54.54936 | 48.95740 | 3013 ft | 170 kts | 213° |
| 2026-04-27 19:57 | 54.53957 | 48.94716 | 3020 ft | 159 kts | 213° |
| 2026-04-27 19:58 | 54.53021 | 48.93735 | 2953 ft | 156 kts | 213° |
| 2026-04-27 19:58 | 54.52081 | 48.92748 | 2532 ft | 159 kts | 212° |
| 2026-04-27 19:58 | 54.51157 | 48.91786 | 2203 ft | 148 kts | 213° |
| 2026-04-27 19:58 | 54.50329 | 48.90921 | 2039 ft | 133 kts | 213° |
| 2026-04-27 19:59 | 54.49569 | 48.90125 | 1855 ft | 126 kts | 212° |
| 2026-04-27 19:59 | 54.48846 | 48.89371 | 1821 ft | 120 kts | 212° |
| 2026-04-27 19:59 | 54.48381 | 48.88887 | 1716 ft | 116 kts | 212° |
| 2026-04-27 19:59 | 54.47718 | 48.88195 | 1479 ft | 107 kts | 212° |
| 2026-04-27 20:00 | 54.46888 | 48.87327 | 1295 ft | 105 kts | 211° |
| 2026-04-27 20:00 | 54.46255 | 48.86667 | 1148 ft | 106 kts | 211° |
| 2026-04-27 20:00 | 54.45609 | 48.85995 | 1031 ft | 110 kts | 211° |
| 2026-04-27 20:00 | 54.45174 | 48.85540 | 961 ft | 111 kts | 211° |
| 2026-04-27 20:01 | 54.44504 | 48.84857 | 858 ft | 113 kts | 210° |
| 2026-04-27 20:01 | 54.43826 | 48.84154 | 731 ft | 115 kts | 211° |
| 2026-04-27 20:01 | 54.43137 | 48.83450 | 584 ft | 115 kts | 209° |
| 2026-04-27 20:01 | 54.42449 | 48.82734 | 422 ft | 115 kts | 211° |
| 2026-04-27 20:02 | 54.41778 | 48.81978 | 316 ft | 115 kts | 210° |
| 2026-04-27 20:02 | 54.41128 | 48.81334 | 252 ft | 104 kts | 213° |
| 2026-04-27 20:02 | 54.40499 | 48.80667 | 236 ft | 102 kts | 208° |
| 2026-04-27 20:02 | 54.39992 | 48.80157 | 243 ft | 64 kts | 211° |
| 2026-04-27 20:03 | 54.39806 | 48.79928 | 246 ft | 9 kts | 266° |
| 2026-04-27 20:03 | 54.39855 | 48.79881 | 246 ft | 12 kts | 355° |
| 2026-04-27 20:03 | 54.39955 | 48.79880 | 244 ft | 16 kts | 2° |
| 2026-04-27 20:03 | 54.40078 | 48.79891 | 241 ft | 19 kts | 2° |
| 2026-04-27 20:04 | 54.40206 | 48.79897 | 240 ft | 16 kts | 12° |
| 2026-04-27 20:04 | 54.40314 | 48.79992 | 238 ft | 19 kts | 30° |
| 2026-04-27 20:04 | 54.40430 | 48.80115 | 237 ft | 21 kts | 32° |
| 2026-04-27 20:04 | 54.40557 | 48.80250 | 236 ft | 22 kts | 31° |
| 2026-04-27 20:05 | 54.40695 | 48.80395 | 238 ft | 24 kts | 31° |
| 2026-04-27 20:05 | 54.40837 | 48.80538 | 234 ft | 19 kts | 30° |
| 2026-04-27 20:05 | 54.40920 | 48.80597 | 232 ft | 10 kts | 350° |
| 2026-04-27 20:05 | 54.40968 | 48.80504 | 231 ft | 12 kts | 301° |
| 2026-04-27 20:06 | 54.41012 | 48.80377 | 231 ft | 13 kts | 301° |
| 2026-04-27 20:06 | 54.41062 | 48.80238 | 233 ft | 14 kts | 302° |
| 2026-04-27 20:06 | 54.41084 | 48.80112 | 234 ft | 10 kts | 253° |
| 2026-04-27 20:06 | 54.41034 | 48.80038 | 234 ft | 10 kts | 213° |
| 2026-04-27 20:07 | 54.40973 | 48.79975 | 233 ft | 12 kts | 210° |
| 2026-04-27 20:07 | 54.40891 | 48.79892 | 237 ft | 16 kts | 211° |
| 2026-04-27 20:07 | 54.40802 | 48.79794 | 236 ft | 15 kts | 212° |
| 2026-04-27 20:07 | 54.40738 | 48.79830 | 237 ft | 8 kts | 126° |
| 2026-04-27 20:08 | 54.40713 | 48.79896 | 239 ft | 4 kts | 122° |
| 2026-04-27 20:08 | 54.40701 | 48.79950 | 237 ft | 9 kts | 90° |
| 2026-04-27 20:08 | 54.40736 | 48.79991 | 235 ft | 2 kts | 341° |
| 2026-04-27 20:08 | 54.40762 | 48.79929 | 238 ft | 11 kts | 304° |
| 2026-04-27 20:09 | 54.40769 | 48.79912 | 237 ft | 0 kts | 303° |